sensor_id;sensor_type;location;lat;lon;timestamp;temperature;humidity
48515;DHT22;34309;47.260;2.796;2024-02-15T00:00:23;18.80;26.60
48515;DHT22;34309;47.260;2.796;2024-02-15T00:03:00;18.90;26.70
48515;DHT22;34309;47.260;2.796;2024-02-15T00:05:34;18.80;26.80
48515;DHT22;34309;47.260;2.796;2024-02-15T00:08:08;18.80;26.70
48515;DHT22;34309;47.260;2.796;2024-02-15T00:10:42;18.80;26.80
48515;DHT22;34309;47.260;2.796;2024-02-15T00:13:18;18.80;26.90
48515;DHT22;34309;47.260;2.796;2024-02-15T00:15:52;18.80;26.90
48515;DHT22;34309;47.260;2.796;2024-02-15T00:18:28;18.80;26.80
48515;DHT22;34309;47.260;2.796;2024-02-15T00:20:57;18.80;26.80
48515;DHT22;34309;47.260;2.796;2024-02-15T00:23:32;18.80;26.70
48515;DHT22;34309;47.260;2.796;2024-02-15T00:26:05;18.70;26.80
48515;DHT22;34309;47.260;2.796;2024-02-15T00:28:41;18.70;26.70
48515;DHT22;34309;47.260;2.796;2024-02-15T00:31:15;18.70;26.70
48515;DHT22;34309;47.260;2.796;2024-02-15T00:33:51;18.70;26.80
48515;DHT22;34309;47.260;2.796;2024-02-15T00:36:29;18.70;26.80
48515;DHT22;34309;47.260;2.796;2024-02-15T00:39:02;18.70;26.90
48515;DHT22;34309;47.260;2.796;2024-02-15T00:41:38;18.70;26.90
48515;DHT22;34309;47.260;2.796;2024-02-15T00:44:13;18.70;26.70
48515;DHT22;34309;47.260;2.796;2024-02-15T00:46:47;18.70;26.70
48515;DHT22;34309;47.260;2.796;2024-02-15T00:49:23;18.70;26.80
48515;DHT22;34309;47.260;2.796;2024-02-15T00:52:00;18.70;26.80
48515;DHT22;34309;47.260;2.796;2024-02-15T00:54:34;18.70;26.70
48515;DHT22;34309;47.260;2.796;2024-02-15T00:57:08;18.70;26.80
48515;DHT22;34309;47.260;2.796;2024-02-15T00:59:42;18.70;26.80
48515;DHT22;34309;47.260;2.796;2024-02-15T01:02:16;18.70;26.80
48515;DHT22;34309;47.260;2.796;2024-02-15T01:04:51;18.70;26.80
48515;DHT22;34309;47.260;2.796;2024-02-15T01:07:30;18.70;26.80
48515;DHT22;34309;47.260;2.796;2024-02-15T01:10:04;18.70;26.90
48515;DHT22;34309;47.260;2.796;2024-02-15T01:12:38;18.70;26.80
48515;DHT22;34309;47.260;2.796;2024-02-15T01:15:12;18.60;26.80
48515;DHT22;34309;47.260;2.796;2024-02-15T01:17:48;18.60;26.90
48515;DHT22;34309;47.260;2.796;2024-02-15T01:20:24;18.60;26.80
48515;DHT22;34309;47.260;2.796;2024-02-15T01:22:59;18.60;26.80
48515;DHT22;34309;47.260;2.796;2024-02-15T01:25:32;18.60;26.80
48515;DHT22;34309;47.260;2.796;2024-02-15T01:28:06;18.60;26.80
48515;DHT22;34309;47.260;2.796;2024-02-15T01:30:40;18.60;26.80
48515;DHT22;34309;47.260;2.796;2024-02-15T01:33:16;18.60;26.80
48515;DHT22;34309;47.260;2.796;2024-02-15T01:35:52;18.60;26.70
48515;DHT22;34309;47.260;2.796;2024-02-15T01:38:28;18.60;26.80
48515;DHT22;34309;47.260;2.796;2024-02-15T01:41:02;18.60;26.80
48515;DHT22;34309;47.260;2.796;2024-02-15T01:43:36;18.60;26.90
48515;DHT22;34309;47.260;2.796;2024-02-15T01:46:11;18.60;26.80
48515;DHT22;34309;47.260;2.796;2024-02-15T01:48:46;18.60;26.80
48515;DHT22;34309;47.260;2.796;2024-02-15T01:51:22;18.60;26.90
48515;DHT22;34309;47.260;2.796;2024-02-15T01:53:57;18.60;26.70
48515;DHT22;34309;47.260;2.796;2024-02-15T01:56:31;18.60;26.80
48515;DHT22;34309;47.260;2.796;2024-02-15T01:59:06;18.60;26.80
48515;DHT22;34309;47.260;2.796;2024-02-15T02:01:40;18.60;26.80
48515;DHT22;34309;47.260;2.796;2024-02-15T02:04:14;18.60;26.80
48515;DHT22;34309;47.260;2.796;2024-02-15T02:06:44;18.60;26.70
48515;DHT22;34309;47.260;2.796;2024-02-15T02:09:18;18.50;26.70
48515;DHT22;34309;47.260;2.796;2024-02-15T02:11:52;18.60;26.70
48515;DHT22;34309;47.260;2.796;2024-02-15T02:14:26;18.50;26.70
48515;DHT22;34309;47.260;2.796;2024-02-15T02:17:11;18.50;26.70
48515;DHT22;34309;47.260;2.796;2024-02-15T02:19:46;18.50;26.70
48515;DHT22;34309;47.260;2.796;2024-02-15T02:22:23;18.50;26.70
48515;DHT22;34309;47.260;2.796;2024-02-15T02:25:03;18.50;26.80
48515;DHT22;34309;47.260;2.796;2024-02-15T02:27:38;18.50;26.70
48515;DHT22;34309;47.260;2.796;2024-02-15T02:30:14;18.50;26.70
48515;DHT22;34309;47.260;2.796;2024-02-15T02:32:51;18.50;26.70
48515;DHT22;34309;47.260;2.796;2024-02-15T02:35:24;18.50;26.70
48515;DHT22;34309;47.260;2.796;2024-02-15T02:37:59;18.50;26.70
48515;DHT22;34309;47.260;2.796;2024-02-15T02:40:33;18.50;26.80
48515;DHT22;34309;47.260;2.796;2024-02-15T02:43:08;18.50;26.80
48515;DHT22;34309;47.260;2.796;2024-02-15T02:45:41;18.50;26.80
48515;DHT22;34309;47.260;2.796;2024-02-15T02:48:17;18.50;27.30
48515;DHT22;34309;47.260;2.796;2024-02-15T02:50:52;18.50;26.70
48515;DHT22;34309;47.260;2.796;2024-02-15T02:53:26;18.50;26.80
48515;DHT22;34309;47.260;2.796;2024-02-15T02:56:01;18.50;26.80
48515;DHT22;34309;47.260;2.796;2024-02-15T02:58:36;18.40;26.70
48515;DHT22;34309;47.260;2.796;2024-02-15T03:01:10;18.50;26.70
48515;DHT22;34309;47.260;2.796;2024-02-15T03:03:40;18.50;26.70
48515;DHT22;34309;47.260;2.796;2024-02-15T03:06:15;18.40;26.60
48515;DHT22;34309;47.260;2.796;2024-02-15T03:08:50;18.50;26.70
48515;DHT22;34309;47.260;2.796;2024-02-15T03:11:27;18.50;26.70
48515;DHT22;34309;47.260;2.796;2024-02-15T03:14:01;18.40;26.60
48515;DHT22;34309;47.260;2.796;2024-02-15T03:16:36;18.40;26.70
48515;DHT22;34309;47.260;2.796;2024-02-15T03:19:10;18.40;26.80
48515;DHT22;34309;47.260;2.796;2024-02-15T03:21:44;18.40;26.80
48515;DHT22;34309;47.260;2.796;2024-02-15T03:24:18;18.50;26.80
48515;DHT22;34309;47.260;2.796;2024-02-15T03:26:54;18.40;26.70
48515;DHT22;34309;47.260;2.796;2024-02-15T03:29:28;18.50;26.70
48515;DHT22;34309;47.260;2.796;2024-02-15T03:32:02;18.40;26.70
48515;DHT22;34309;47.260;2.796;2024-02-15T03:34:31;18.40;27.20
48515;DHT22;34309;47.260;2.796;2024-02-15T03:37:04;18.40;26.80
48515;DHT22;34309;47.260;2.796;2024-02-15T03:39:33;18.40;26.80
48515;DHT22;34309;47.260;2.796;2024-02-15T03:42:09;18.40;26.60
48515;DHT22;34309;47.260;2.796;2024-02-15T03:44:43;18.40;26.60
48515;DHT22;34309;47.260;2.796;2024-02-15T03:47:17;18.40;26.60
48515;DHT22;34309;47.260;2.796;2024-02-15T03:49:51;18.40;26.80
48515;DHT22;34309;47.260;2.796;2024-02-15T03:52:26;18.40;26.90
48515;DHT22;34309;47.260;2.796;2024-02-15T03:55:02;18.40;26.90
48515;DHT22;34309;47.260;2.796;2024-02-15T03:57:38;18.40;26.80
48515;DHT22;34309;47.260;2.796;2024-02-15T04:00:14;18.40;26.80
48515;DHT22;34309;47.260;2.796;2024-02-15T04:02:52;18.40;26.70
48515;DHT22;34309;47.260;2.796;2024-02-15T04:05:28;18.40;26.80
48515;DHT22;34309;47.260;2.796;2024-02-15T04:08:02;18.40;26.80
48515;DHT22;34309;47.260;2.796;2024-02-15T04:10:37;18.40;26.70
48515;DHT22;34309;47.260;2.796;2024-02-15T04:13:12;18.40;26.70
48515;DHT22;34309;47.260;2.796;2024-02-15T04:15:47;18.40;26.70
48515;DHT22;34309;47.260;2.796;2024-02-15T04:18:22;18.40;26.80
48515;DHT22;34309;47.260;2.796;2024-02-15T04:20:56;18.40;26.80
48515;DHT22;34309;47.260;2.796;2024-02-15T04:23:31;18.40;26.80
48515;DHT22;34309;47.260;2.796;2024-02-15T04:26:05;18.40;26.60
48515;DHT22;34309;47.260;2.796;2024-02-15T04:28:40;18.40;26.60
48515;DHT22;34309;47.260;2.796;2024-02-15T04:31:14;18.40;26.60
48515;DHT22;34309;47.260;2.796;2024-02-15T04:33:47;18.40;26.60
48515;DHT22;34309;47.260;2.796;2024-02-15T04:36:22;18.40;26.70
48515;DHT22;34309;47.260;2.796;2024-02-15T04:38:57;18.40;26.80
48515;DHT22;34309;47.260;2.796;2024-02-15T04:41:30;18.40;26.60
48515;DHT22;34309;47.260;2.796;2024-02-15T04:44:06;18.40;26.60
48515;DHT22;34309;47.260;2.796;2024-02-15T04:46:44;18.40;26.70
48515;DHT22;34309;47.260;2.796;2024-02-15T04:49:17;18.40;26.60
48515;DHT22;34309;47.260;2.796;2024-02-15T04:51:51;18.40;26.60
48515;DHT22;34309;47.260;2.796;2024-02-15T04:54:25;18.40;26.60
48515;DHT22;34309;47.260;2.796;2024-02-15T04:57:00;18.40;26.60
48515;DHT22;34309;47.260;2.796;2024-02-15T04:59:35;18.40;26.60
48515;DHT22;34309;47.260;2.796;2024-02-15T05:02:09;18.40;26.60
48515;DHT22;34309;47.260;2.796;2024-02-15T05:04:43;18.40;26.60
48515;DHT22;34309;47.260;2.796;2024-02-15T05:07:17;18.40;26.50
48515;DHT22;34309;47.260;2.796;2024-02-15T05:09:51;18.40;26.60
48515;DHT22;34309;47.260;2.796;2024-02-15T05:12:25;18.40;26.60
48515;DHT22;34309;47.260;2.796;2024-02-15T05:15:01;18.40;26.50
48515;DHT22;34309;47.260;2.796;2024-02-15T05:17:42;18.40;26.60
48515;DHT22;34309;47.260;2.796;2024-02-15T05:20:16;18.30;26.60
48515;DHT22;34309;47.260;2.796;2024-02-15T05:22:52;18.30;26.60
48515;DHT22;34309;47.260;2.796;2024-02-15T05:25:26;18.30;26.60
48515;DHT22;34309;47.260;2.796;2024-02-15T05:28:00;18.30;26.60
48515;DHT22;34309;47.260;2.796;2024-02-15T05:30:35;18.30;26.40
48515;DHT22;34309;47.260;2.796;2024-02-15T05:33:11;18.30;26.60
48515;DHT22;34309;47.260;2.796;2024-02-15T05:35:45;18.30;26.50
48515;DHT22;34309;47.260;2.796;2024-02-15T05:38:22;18.30;27.10
48515;DHT22;34309;47.260;2.796;2024-02-15T05:40:56;18.30;26.60
48515;DHT22;34309;47.260;2.796;2024-02-15T05:43:29;18.30;26.60
48515;DHT22;34309;47.260;2.796;2024-02-15T05:46:06;18.30;26.60
48515;DHT22;34309;47.260;2.796;2024-02-15T05:48:40;18.30;26.60
48515;DHT22;34309;47.260;2.796;2024-02-15T05:51:14;18.30;26.60
48515;DHT22;34309;47.260;2.796;2024-02-15T05:53:48;18.30;26.60
48515;DHT22;34309;47.260;2.796;2024-02-15T05:56:22;18.30;26.60
48515;DHT22;34309;47.260;2.796;2024-02-15T05:58:53;18.30;26.50
48515;DHT22;34309;47.260;2.796;2024-02-15T06:01:29;18.30;26.50
48515;DHT22;34309;47.260;2.796;2024-02-15T06:04:03;18.30;26.50
48515;DHT22;34309;47.260;2.796;2024-02-15T06:06:40;18.30;26.50
48515;DHT22;34309;47.260;2.796;2024-02-15T06:09:15;18.30;26.40
48515;DHT22;34309;47.260;2.796;2024-02-15T06:11:48;18.30;26.40
48515;DHT22;34309;47.260;2.796;2024-02-15T06:14:19;18.30;26.50
48515;DHT22;34309;47.260;2.796;2024-02-15T06:16:54;18.30;26.60
48515;DHT22;34309;47.260;2.796;2024-02-15T06:19:30;18.30;26.70
48515;DHT22;34309;47.260;2.796;2024-02-15T06:22:05;18.30;26.60
48515;DHT22;34309;47.260;2.796;2024-02-15T06:24:40;18.30;26.60
48515;DHT22;34309;47.260;2.796;2024-02-15T06:27:14;18.20;26.50
48515;DHT22;34309;47.260;2.796;2024-02-15T06:29:49;18.20;26.50
48515;DHT22;34309;47.260;2.796;2024-02-15T06:32:42;18.20;26.50
48515;DHT22;34309;47.260;2.796;2024-02-15T06:35:33;18.30;26.60
48515;DHT22;34309;47.260;2.796;2024-02-15T06:38:24;18.20;26.50
48515;DHT22;34309;47.260;2.796;2024-02-15T06:41:15;18.20;26.60
48515;DHT22;34309;47.260;2.796;2024-02-15T06:43:51;18.20;26.60
48515;DHT22;34309;47.260;2.796;2024-02-15T06:46:24;18.20;26.50
48515;DHT22;34309;47.260;2.796;2024-02-15T06:48:59;18.20;26.50
48515;DHT22;34309;47.260;2.796;2024-02-15T06:51:33;18.20;26.50
48515;DHT22;34309;47.260;2.796;2024-02-15T06:54:08;18.20;26.60
48515;DHT22;34309;47.260;2.796;2024-02-15T06:56:41;18.20;26.60
48515;DHT22;34309;47.260;2.796;2024-02-15T06:59:15;18.20;26.60
48515;DHT22;34309;47.260;2.796;2024-02-15T07:01:50;18.20;26.70
48515;DHT22;34309;47.260;2.796;2024-02-15T07:04:26;18.20;26.60
48515;DHT22;34309;47.260;2.796;2024-02-15T07:07:00;18.20;26.70
48515;DHT22;34309;47.260;2.796;2024-02-15T07:09:34;18.20;26.70
48515;DHT22;34309;47.260;2.796;2024-02-15T07:12:08;18.20;26.70
48515;DHT22;34309;47.260;2.796;2024-02-15T07:14:43;18.20;26.70
48515;DHT22;34309;47.260;2.796;2024-02-15T07:17:18;18.10;26.60
48515;DHT22;34309;47.260;2.796;2024-02-15T07:19:48;18.10;26.80
48515;DHT22;34309;47.260;2.796;2024-02-15T07:22:22;18.10;26.80
48515;DHT22;34309;47.260;2.796;2024-02-15T07:25:00;18.10;26.70
48515;DHT22;34309;47.260;2.796;2024-02-15T07:27:34;18.10;26.80
48515;DHT22;34309;47.260;2.796;2024-02-15T07:30:09;18.10;26.70
48515;DHT22;34309;47.260;2.796;2024-02-15T07:32:43;18.10;26.80
48515;DHT22;34309;47.260;2.796;2024-02-15T07:35:18;18.10;26.70
48515;DHT22;34309;47.260;2.796;2024-02-15T07:37:52;18.10;26.80
48515;DHT22;34309;47.260;2.796;2024-02-15T07:40:27;18.10;26.60
48515;DHT22;34309;47.260;2.796;2024-02-15T07:43:01;18.10;26.80
48515;DHT22;34309;47.260;2.796;2024-02-15T07:45:35;18.10;26.70
48515;DHT22;34309;47.260;2.796;2024-02-15T07:48:09;18.10;26.60
48515;DHT22;34309;47.260;2.796;2024-02-15T07:50:45;18.10;26.90
48515;DHT22;34309;47.260;2.796;2024-02-15T07:53:18;18.10;26.80
48515;DHT22;34309;47.260;2.796;2024-02-15T07:55:52;18.10;26.60
48515;DHT22;34309;47.260;2.796;2024-02-15T07:58:25;18.00;26.70
48515;DHT22;34309;47.260;2.796;2024-02-15T08:00:59;18.10;26.80
48515;DHT22;34309;47.260;2.796;2024-02-15T08:03:33;18.00;26.70
48515;DHT22;34309;47.260;2.796;2024-02-15T08:06:09;18.00;26.70
48515;DHT22;34309;47.260;2.796;2024-02-15T08:08:46;18.10;26.80
48515;DHT22;34309;47.260;2.796;2024-02-15T08:11:20;18.00;26.70
48515;DHT22;34309;47.260;2.796;2024-02-15T08:13:55;18.00;26.70
48515;DHT22;34309;47.260;2.796;2024-02-15T08:16:31;18.10;26.80
48515;DHT22;34309;47.260;2.796;2024-02-15T08:19:07;18.00;26.70
48515;DHT22;34309;47.260;2.796;2024-02-15T08:21:42;18.00;27.30
48515;DHT22;34309;47.260;2.796;2024-02-15T08:24:18;18.00;26.70
48515;DHT22;34309;47.260;2.796;2024-02-15T08:26:47;18.00;26.70
48515;DHT22;34309;47.260;2.796;2024-02-15T08:29:20;18.00;26.70
48515;DHT22;34309;47.260;2.796;2024-02-15T08:31:56;18.00;26.80
48515;DHT22;34309;47.260;2.796;2024-02-15T08:34:30;18.00;26.70
48515;DHT22;34309;47.260;2.796;2024-02-15T08:37:06;18.00;26.70
48515;DHT22;34309;47.260;2.796;2024-02-15T08:39:40;18.00;26.70
48515;DHT22;34309;47.260;2.796;2024-02-15T08:42:17;18.00;26.70
48515;DHT22;34309;47.260;2.796;2024-02-15T08:44:54;18.00;26.70
48515;DHT22;34309;47.260;2.796;2024-02-15T08:47:28;18.00;26.70
48515;DHT22;34309;47.260;2.796;2024-02-15T08:50:01;18.00;26.60
48515;DHT22;34309;47.260;2.796;2024-02-15T08:52:37;18.00;26.80
48515;DHT22;34309;47.260;2.796;2024-02-15T08:55:11;18.00;26.70
48515;DHT22;34309;47.260;2.796;2024-02-15T08:57:46;18.00;26.70
48515;DHT22;34309;47.260;2.796;2024-02-15T09:00:21;18.00;26.70
48515;DHT22;34309;47.260;2.796;2024-02-15T09:02:54;18.00;26.80
48515;DHT22;34309;47.260;2.796;2024-02-15T09:05:29;18.00;26.90
48515;DHT22;34309;47.260;2.796;2024-02-15T09:08:05;18.00;26.80
48515;DHT22;34309;47.260;2.796;2024-02-15T09:10:39;18.00;26.90
48515;DHT22;34309;47.260;2.796;2024-02-15T09:13:12;18.00;26.70
48515;DHT22;34309;47.260;2.796;2024-02-15T09:15:47;18.00;26.70
48515;DHT22;34309;47.260;2.796;2024-02-15T09:18:21;18.00;26.90
48515;DHT22;34309;47.260;2.796;2024-02-15T09:20:54;18.00;26.80
48515;DHT22;34309;47.260;2.796;2024-02-15T09:23:29;18.00;26.80
48515;DHT22;34309;47.260;2.796;2024-02-15T09:26:04;18.00;26.70
48515;DHT22;34309;47.260;2.796;2024-02-15T09:28:40;18.00;26.90
48515;DHT22;34309;47.260;2.796;2024-02-15T09:31:13;18.00;26.80
48515;DHT22;34309;47.260;2.796;2024-02-15T09:33:47;18.00;26.80
48515;DHT22;34309;47.260;2.796;2024-02-15T09:36:21;18.00;26.70
48515;DHT22;34309;47.260;2.796;2024-02-15T09:38:56;18.00;26.70
48515;DHT22;34309;47.260;2.796;2024-02-15T09:41:31;18.00;26.70
48515;DHT22;34309;47.260;2.796;2024-02-15T09:44:06;18.00;26.80
48515;DHT22;34309;47.260;2.796;2024-02-15T09:46:43;18.00;26.70
48515;DHT22;34309;47.260;2.796;2024-02-15T09:49:18;18.00;26.70
48515;DHT22;34309;47.260;2.796;2024-02-15T09:51:53;18.00;26.80
48515;DHT22;34309;47.260;2.796;2024-02-15T09:54:29;18.00;26.70
48515;DHT22;34309;47.260;2.796;2024-02-15T09:57:03;18.00;26.80
48515;DHT22;34309;47.260;2.796;2024-02-15T09:59:37;18.00;26.70
48515;DHT22;34309;47.260;2.796;2024-02-15T10:02:12;18.00;26.70
48515;DHT22;34309;47.260;2.796;2024-02-15T10:04:47;18.00;26.80
48515;DHT22;34309;47.260;2.796;2024-02-15T10:07:15;18.00;26.90
48515;DHT22;34309;47.260;2.796;2024-02-15T10:09:52;18.00;26.80
48515;DHT22;34309;47.260;2.796;2024-02-15T10:12:37;18.00;26.80
48515;DHT22;34309;47.260;2.796;2024-02-15T10:15:27;18.00;26.80
48515;DHT22;34309;47.260;2.796;2024-02-15T10:18:04;18.00;26.80
48515;DHT22;34309;47.260;2.796;2024-02-15T10:20:38;18.00;26.80
48515;DHT22;34309;47.260;2.796;2024-02-15T10:23:12;18.00;26.80
48515;DHT22;34309;47.260;2.796;2024-02-15T10:25:47;18.00;26.90
48515;DHT22;34309;47.260;2.796;2024-02-15T10:28:23;18.00;26.80
48515;DHT22;34309;47.260;2.796;2024-02-15T10:31:07;18.00;26.80
48515;DHT22;34309;47.260;2.796;2024-02-15T10:33:45;18.10;26.90
48515;DHT22;34309;47.260;2.796;2024-02-15T10:36:24;18.10;26.90
48515;DHT22;34309;47.260;2.796;2024-02-15T10:39:17;18.00;26.80
48515;DHT22;34309;47.260;2.796;2024-02-15T10:41:53;18.00;26.80
48515;DHT22;34309;47.260;2.796;2024-02-15T10:44:27;18.00;26.90
48515;DHT22;34309;47.260;2.796;2024-02-15T10:47:02;18.10;26.90
48515;DHT22;34309;47.260;2.796;2024-02-15T10:49:39;18.00;26.90
48515;DHT22;34309;47.260;2.796;2024-02-15T10:52:13;18.00;26.90
48515;DHT22;34309;47.260;2.796;2024-02-15T10:54:52;18.10;26.90
48515;DHT22;34309;47.260;2.796;2024-02-15T10:57:30;18.10;26.90
48515;DHT22;34309;47.260;2.796;2024-02-15T11:00:06;18.10;27.00
48515;DHT22;34309;47.260;2.796;2024-02-15T11:02:49;18.10;26.90
48515;DHT22;34309;47.260;2.796;2024-02-15T11:05:24;18.10;26.90
48515;DHT22;34309;47.260;2.796;2024-02-15T11:07:58;18.10;27.00
48515;DHT22;34309;47.260;2.796;2024-02-15T11:10:33;18.10;27.00
48515;DHT22;34309;47.260;2.796;2024-02-15T11:13:08;18.10;27.00
48515;DHT22;34309;47.260;2.796;2024-02-15T11:15:44;18.10;27.00
48515;DHT22;34309;47.260;2.796;2024-02-15T11:18:45;18.10;27.00
48515;DHT22;34309;47.260;2.796;2024-02-15T11:21:53;18.10;27.00
48515;DHT22;34309;47.260;2.796;2024-02-15T11:24:29;18.10;27.10
48515;DHT22;34309;47.260;2.796;2024-02-15T11:27:05;18.10;26.90
48515;DHT22;34309;47.260;2.796;2024-02-15T11:29:50;18.10;27.00
48515;DHT22;34309;47.260;2.796;2024-02-15T11:32:40;18.10;27.00
48515;DHT22;34309;47.260;2.796;2024-02-15T11:35:18;18.10;27.00
48515;DHT22;34309;47.260;2.796;2024-02-15T11:37:57;18.10;27.00
48515;DHT22;34309;47.260;2.796;2024-02-15T11:41:01;18.10;27.00
48515;DHT22;34309;47.260;2.796;2024-02-15T11:43:52;18.10;27.10
48515;DHT22;34309;47.260;2.796;2024-02-15T11:46:34;18.10;27.20
48515;DHT22;34309;47.260;2.796;2024-02-15T11:49:15;18.10;27.10
48515;DHT22;34309;47.260;2.796;2024-02-15T11:51:49;18.10;27.10
48515;DHT22;34309;47.260;2.796;2024-02-15T11:54:23;18.10;27.10
48515;DHT22;34309;47.260;2.796;2024-02-15T11:56:58;18.10;27.20
48515;DHT22;34309;47.260;2.796;2024-02-15T11:59:40;18.10;27.20
48515;DHT22;34309;47.260;2.796;2024-02-15T12:02:48;18.10;27.10
48515;DHT22;34309;47.260;2.796;2024-02-15T12:05:39;18.10;27.00
48515;DHT22;34309;47.260;2.796;2024-02-15T12:08:30;18.10;27.20
48515;DHT22;34309;47.260;2.796;2024-02-15T12:11:16;18.20;27.30
48515;DHT22;34309;47.260;2.796;2024-02-15T12:14:21;18.20;27.10
48515;DHT22;34309;47.260;2.796;2024-02-15T12:17:14;18.20;27.10
48515;DHT22;34309;47.260;2.796;2024-02-15T12:20:07;18.20;27.20
48515;DHT22;34309;47.260;2.796;2024-02-15T12:22:40;18.20;27.20
48515;DHT22;34309;47.260;2.796;2024-02-15T12:25:17;18.20;27.20
48515;DHT22;34309;47.260;2.796;2024-02-15T12:27:54;18.20;27.20
48515;DHT22;34309;47.260;2.796;2024-02-15T12:30:34;18.20;27.80
48515;DHT22;34309;47.260;2.796;2024-02-15T12:33:11;18.20;27.40
48515;DHT22;34309;47.260;2.796;2024-02-15T12:36:03;18.20;27.20
48515;DHT22;34309;47.260;2.796;2024-02-15T12:38:32;18.20;27.20
48515;DHT22;34309;47.260;2.796;2024-02-15T12:41:19;18.20;27.30
48515;DHT22;34309;47.260;2.796;2024-02-15T12:43:53;18.20;27.20
48515;DHT22;34309;47.260;2.796;2024-02-15T12:46:30;18.20;27.30
48515;DHT22;34309;47.260;2.796;2024-02-15T12:49:24;18.20;27.20
48515;DHT22;34309;47.260;2.796;2024-02-15T12:55:18;18.20;27.20
48515;DHT22;34309;47.260;2.796;2024-02-15T12:57:54;18.20;27.50
48515;DHT22;34309;47.260;2.796;2024-02-15T13:00:30;18.20;27.40
48515;DHT22;34309;47.260;2.796;2024-02-15T13:03:06;18.20;27.50
48515;DHT22;34309;47.260;2.796;2024-02-15T13:05:42;18.20;27.40
48515;DHT22;34309;47.260;2.796;2024-02-15T13:08:15;18.30;27.40
48515;DHT22;34309;47.260;2.796;2024-02-15T13:10:53;18.30;27.40
48515;DHT22;34309;47.260;2.796;2024-02-15T13:13:28;18.30;27.40
48515;DHT22;34309;47.260;2.796;2024-02-15T13:16:03;18.30;27.40
48515;DHT22;34309;47.260;2.796;2024-02-15T13:18:38;18.30;27.40
48515;DHT22;34309;47.260;2.796;2024-02-15T13:21:13;18.30;27.40
48515;DHT22;34309;47.260;2.796;2024-02-15T13:23:47;18.30;27.50
48515;DHT22;34309;47.260;2.796;2024-02-15T13:26:23;18.30;27.40
48515;DHT22;34309;47.260;2.796;2024-02-15T13:28:58;18.30;27.50
48515;DHT22;34309;47.260;2.796;2024-02-15T13:31:32;18.30;27.40
48515;DHT22;34309;47.260;2.796;2024-02-15T13:34:07;18.30;27.40
48515;DHT22;34309;47.260;2.796;2024-02-15T13:36:40;18.30;27.50
48515;DHT22;34309;47.260;2.796;2024-02-15T13:39:17;18.30;27.50
48515;DHT22;34309;47.260;2.796;2024-02-15T13:41:55;18.30;27.50
48515;DHT22;34309;47.260;2.796;2024-02-15T13:44:29;18.30;27.50
48515;DHT22;34309;47.260;2.796;2024-02-15T13:47:03;18.30;27.50
48515;DHT22;34309;47.260;2.796;2024-02-15T13:49:38;18.30;27.50
48515;DHT22;34309;47.260;2.796;2024-02-15T13:52:13;18.30;27.50
48515;DHT22;34309;47.260;2.796;2024-02-15T13:54:48;18.30;27.50
48515;DHT22;34309;47.260;2.796;2024-02-15T13:57:23;18.30;28.00
48515;DHT22;34309;47.260;2.796;2024-02-15T13:59:53;18.30;27.50
48515;DHT22;34309;47.260;2.796;2024-02-15T14:02:27;18.30;27.50
48515;DHT22;34309;47.260;2.796;2024-02-15T14:05:01;18.30;27.50
48515;DHT22;34309;47.260;2.796;2024-02-15T14:07:34;18.30;27.60
48515;DHT22;34309;47.260;2.796;2024-02-15T14:10:09;18.30;27.50
48515;DHT22;34309;47.260;2.796;2024-02-15T14:12:41;18.30;27.40
48515;DHT22;34309;47.260;2.796;2024-02-15T14:15:15;18.30;27.50
48515;DHT22;34309;47.260;2.796;2024-02-15T14:17:49;18.30;27.60
48515;DHT22;34309;47.260;2.796;2024-02-15T14:20:23;18.40;27.60
48515;DHT22;34309;47.260;2.796;2024-02-15T14:22:57;18.40;27.60
48515;DHT22;34309;47.260;2.796;2024-02-15T14:25:35;18.40;27.60
48515;DHT22;34309;47.260;2.796;2024-02-15T14:28:10;18.40;27.60
48515;DHT22;34309;47.260;2.796;2024-02-15T14:30:45;18.40;27.70
48515;DHT22;34309;47.260;2.796;2024-02-15T14:33:35;18.40;27.70
48515;DHT22;34309;47.260;2.796;2024-02-15T14:36:09;18.40;27.60
48515;DHT22;34309;47.260;2.796;2024-02-15T14:38:44;18.40;27.50
48515;DHT22;34309;47.260;2.796;2024-02-15T14:41:19;18.40;27.60
48515;DHT22;34309;47.260;2.796;2024-02-15T14:43:54;18.40;27.50
48515;DHT22;34309;47.260;2.796;2024-02-15T14:46:28;18.40;27.70
48515;DHT22;34309;47.260;2.796;2024-02-15T14:49:02;18.40;27.70
48515;DHT22;34309;47.260;2.796;2024-02-15T14:51:36;18.40;27.70
48515;DHT22;34309;47.260;2.796;2024-02-15T14:54:11;18.40;27.60
48515;DHT22;34309;47.260;2.796;2024-02-15T14:56:47;18.40;27.60
48515;DHT22;34309;47.260;2.796;2024-02-15T14:59:23;18.40;27.60
48515;DHT22;34309;47.260;2.796;2024-02-15T15:01:56;18.40;27.60
48515;DHT22;34309;47.260;2.796;2024-02-15T15:04:35;18.40;27.70
48515;DHT22;34309;47.260;2.796;2024-02-15T15:07:29;18.40;27.60
48515;DHT22;34309;47.260;2.796;2024-02-15T15:10:20;18.40;27.60
48515;DHT22;34309;47.260;2.796;2024-02-15T15:13:11;18.40;27.80
48515;DHT22;34309;47.260;2.796;2024-02-15T15:15:47;18.40;27.70
48515;DHT22;34309;47.260;2.796;2024-02-15T15:18:21;18.40;27.60
48515;DHT22;34309;47.260;2.796;2024-02-15T15:20:56;18.40;27.70
48515;DHT22;34309;47.260;2.796;2024-02-15T15:23:30;18.40;27.70
48515;DHT22;34309;47.260;2.796;2024-02-15T15:26:04;18.40;27.70
48515;DHT22;34309;47.260;2.796;2024-02-15T15:28:38;18.40;27.70
48515;DHT22;34309;47.260;2.796;2024-02-15T15:31:13;18.40;27.70
48515;DHT22;34309;47.260;2.796;2024-02-15T15:33:47;18.40;27.60
48515;DHT22;34309;47.260;2.796;2024-02-15T15:36:21;18.40;27.60
48515;DHT22;34309;47.260;2.796;2024-02-15T15:38:56;18.40;27.70
48515;DHT22;34309;47.260;2.796;2024-02-15T15:41:30;18.40;27.80
48515;DHT22;34309;47.260;2.796;2024-02-15T15:44:04;18.40;27.70
48515;DHT22;34309;47.260;2.796;2024-02-15T15:46:39;18.40;27.50
48515;DHT22;34309;47.260;2.796;2024-02-15T15:49:14;18.40;27.60
48515;DHT22;34309;47.260;2.796;2024-02-15T15:51:48;18.40;27.60
48515;DHT22;34309;47.260;2.796;2024-02-15T15:54:22;18.50;27.70
48515;DHT22;34309;47.260;2.796;2024-02-15T15:56:56;18.40;27.70
48515;DHT22;34309;47.260;2.796;2024-02-15T15:59:29;18.50;27.80
48515;DHT22;34309;47.260;2.796;2024-02-15T16:02:05;18.50;27.70
48515;DHT22;34309;47.260;2.796;2024-02-15T16:04:43;18.50;27.90
48515;DHT22;34309;47.260;2.796;2024-02-15T16:07:18;18.50;27.80
48515;DHT22;34309;47.260;2.796;2024-02-15T16:09:51;18.50;27.70
48515;DHT22;34309;47.260;2.796;2024-02-15T16:12:27;18.50;27.70
48515;DHT22;34309;47.260;2.796;2024-02-15T16:15:01;18.50;27.70
48515;DHT22;34309;47.260;2.796;2024-02-15T16:17:41;18.50;27.70
48515;DHT22;34309;47.260;2.796;2024-02-15T16:20:16;18.50;27.60
48515;DHT22;34309;47.260;2.796;2024-02-15T16:22:50;18.50;27.60
48515;DHT22;34309;47.260;2.796;2024-02-15T16:25:24;18.50;27.70
48515;DHT22;34309;47.260;2.796;2024-02-15T16:28:02;18.50;27.70